createdAt,value
2022-08-05T00:00:58.181Z,822.99
2022-08-05T00:02:07.738Z,822.98
2022-08-05T00:02:58.327Z,823.01
2022-08-05T00:03:58.243Z,823.01
2022-08-05T00:04:58.254Z,823.01
2022-08-05T00:06:06.450Z,822.99
2022-08-05T00:06:58.295Z,822.99
2022-08-05T00:07:59.625Z,822.98
2022-08-05T00:08:58.330Z,822.93
2022-08-05T00:09:58.349Z,822.94
2022-08-05T00:11:00.927Z,822.96
2022-08-05T00:11:59.815Z,822.91
2022-08-05T00:12:58.506Z,822.90
2022-08-05T00:13:58.432Z,822.88
2022-08-05T00:14:58.440Z,822.90
2022-08-05T00:16:00.281Z,822.87
2022-08-05T00:16:58.484Z,822.83
2022-08-05T00:17:58.498Z,822.84
2022-08-05T00:18:59.024Z,822.81
2022-08-05T00:20:02.459Z,822.80
2022-08-05T00:20:58.653Z,822.82
2022-08-05T00:21:58.582Z,822.83
2022-08-05T00:23:02.621Z,822.83
2022-08-05T00:24:10.079Z,822.85
2022-08-05T00:24:58.631Z,822.83
2022-08-05T00:25:58.700Z,822.78
2022-08-05T00:26:58.779Z,822.80
2022-08-05T00:27:58.688Z,822.77
2022-08-05T00:28:58.703Z,822.78
2022-08-05T00:29:58.720Z,822.73
2022-08-05T00:30:58.737Z,822.69
2022-08-05T00:32:12.251Z,822.70
2022-08-05T00:32:58.775Z,822.68
2022-08-05T00:34:53.414Z,822.67
2022-08-05T00:35:06.772Z,822.66
2022-08-05T00:36:16.224Z,822.64
2022-08-05T00:37:11.837Z,822.66
2022-08-05T00:37:58.867Z,822.64
2022-08-05T00:38:59.452Z,822.63
2022-08-05T00:39:59.300Z,822.62
2022-08-05T00:40:58.927Z,822.61
2022-08-05T00:41:58.948Z,822.59
2022-08-05T00:42:58.979Z,822.57
2022-08-05T00:43:58.979Z,822.51
2022-08-05T00:44:59.387Z,822.56
2022-08-05T00:45:59.025Z,822.53
2022-08-05T00:47:01.956Z,822.53
2022-08-05T00:48:05.355Z,822.52
2022-08-05T00:48:59.071Z,822.57
2022-08-05T00:49:59.096Z,822.54
2022-08-05T00:50:59.112Z,822.54
2022-08-05T00:51:59.137Z,822.52
2022-08-05T00:52:59.150Z,822.52
2022-08-05T00:54:02.591Z,822.50
2022-08-05T00:54:59.187Z,822.50
2022-08-05T00:55:59.206Z,822.49
2022-08-05T00:56:59.227Z,822.48
2022-08-05T00:57:59.413Z,822.52
2022-08-05T00:59:00.222Z,822.48
2022-08-05T00:59:59.285Z,822.53
2022-08-05T01:00:59.390Z,822.45
2022-08-05T01:01:59.379Z,822.51
2022-08-05T01:02:59.861Z,822.45
2022-08-05T01:03:59.365Z,822.47
2022-08-05T01:04:59.376Z,822.47
2022-08-05T01:05:59.400Z,822.46
2022-08-05T01:06:59.415Z,822.45
2022-08-05T01:08:30.362Z,822.44
2022-08-05T01:08:59.451Z,822.43
2022-08-05T01:09:59.471Z,822.41
2022-08-05T01:10:59.486Z,822.43
2022-08-05T01:12:04.511Z,822.40
2022-08-05T01:13:05.193Z,822.40
2022-08-05T01:13:59.885Z,822.41
2022-08-05T01:14:59.563Z,822.41
2022-08-05T01:15:59.585Z,822.38
2022-08-05T01:16:59.601Z,822.33
2022-08-05T01:17:59.624Z,822.31
2022-08-05T01:19:00.836Z,822.31
2022-08-05T01:20:03.043Z,822.31
2022-08-05T01:20:59.685Z,822.28
2022-08-05T01:21:59.691Z,822.25
2022-08-05T01:22:59.715Z,822.29
2022-08-05T01:23:59.732Z,822.26
2022-08-05T01:24:59.750Z,822.28
2022-08-05T01:25:59.767Z,822.27
2022-08-05T01:26:59.792Z,822.21
2022-08-05T01:27:59.806Z,822.22
2022-08-05T01:29:03.566Z,822.20
2022-08-05T01:29:59.847Z,822.20
2022-08-05T01:30:59.865Z,822.17
2022-08-05T01:31:59.998Z,822.18
2022-08-05T01:32:59.904Z,822.20
2022-08-05T01:33:59.922Z,822.20
2022-08-05T01:34:59.937Z,822.16
2022-08-05T01:35:59.959Z,822.17
2022-08-05T01:37:00.685Z,822.18
2022-08-05T01:38:00.190Z,822.17
2022-08-05T01:39:01.211Z,822.19
2022-08-05T01:40:00.129Z,822.17
2022-08-05T01:41:00.050Z,822.14
2022-08-05T01:42:00.121Z,822.14
2022-08-05T01:43:00.097Z,822.10
2022-08-05T01:44:00.117Z,822.13
2022-08-05T01:45:00.132Z,822.12
2022-08-05T01:46:07.110Z,822.09
2022-08-05T01:47:00.169Z,822.12
2022-08-05T01:48:00.183Z,822.08
2022-08-05T01:49:00.206Z,822.10
2022-08-05T01:50:02.758Z,822.14
2022-08-05T01:51:00.243Z,822.09
2022-08-05T01:52:00.254Z,822.11
2022-08-05T01:53:00.280Z,822.07
2022-08-05T01:54:00.293Z,822.09
2022-08-05T01:55:00.510Z,822.09
2022-08-05T01:56:00.329Z,822.06
2022-08-05T01:58:12.772Z,822.04
2022-08-05T01:58:29.305Z,822.04
2022-08-05T01:59:00.401Z,822.03
2022-08-05T02:00:00.410Z,822.03
2022-08-05T02:01:00.430Z,822.03
2022-08-05T02:02:00.530Z,821.98
2022-08-05T02:03:00.461Z,822.00
2022-08-05T02:04:00.485Z,822.03
2022-08-05T02:05:00.503Z,822.02
2022-08-05T02:06:03.334Z,822.02
2022-08-05T02:07:00.538Z,822.01
2022-08-05T02:08:01.608Z,822.03
2022-08-05T02:09:00.576Z,822.03
2022-08-05T02:10:00.627Z,822.03
2022-08-05T02:11:00.608Z,822.05
2022-08-05T02:12:00.638Z,822.02
2022-08-05T02:13:00.651Z,821.98
2022-08-05T02:14:00.669Z,821.96
2022-08-05T02:15:00.688Z,821.95
2022-08-05T02:16:00.723Z,821.93
2022-08-05T02:17:00.728Z,821.88
2022-08-05T02:18:31.447Z,821.88
2022-08-05T02:19:00.764Z,821.84
2022-08-05T02:20:00.784Z,821.84
2022-08-05T02:21:00.800Z,821.85
2022-08-05T02:22:00.817Z,821.87
2022-08-05T02:23:00.845Z,821.86
2022-08-05T02:24:00.856Z,821.87
2022-08-05T02:25:00.873Z,821.88
2022-08-05T02:26:00.894Z,821.86
2022-08-05T02:27:00.927Z,821.83
2022-08-05T02:28:00.942Z,821.83
2022-08-05T02:29:00.949Z,821.84
2022-08-05T02:30:01.115Z,821.83
2022-08-05T02:31:01.022Z,821.87
2022-08-05T02:32:04.834Z,821.84
2022-08-05T02:33:01.025Z,821.84
2022-08-05T02:34:01.040Z,821.80
2022-08-05T02:35:09.640Z,821.82
2022-08-05T02:36:01.335Z,821.80
2022-08-05T02:37:01.098Z,821.80
2022-08-05T02:38:02.249Z,821.77
2022-08-05T02:39:01.218Z,821.78
2022-08-05T02:40:01.152Z,821.76
2022-08-05T02:41:01.172Z,821.81
2022-08-05T02:42:01.663Z,821.78
2022-08-05T02:43:01.213Z,821.81
2022-08-05T02:44:06.252Z,821.80
2022-08-05T02:45:01.347Z,821.78
2022-08-05T02:46:01.270Z,821.76
2022-08-05T02:47:01.398Z,821.73
2022-08-05T02:48:09.917Z,821.73
2022-08-05T02:49:01.323Z,821.74
2022-08-05T02:50:01.348Z,821.69
2022-08-05T02:51:01.358Z,821.74
2022-08-05T02:52:04.006Z,821.73
2022-08-05T02:53:01.396Z,821.76
2022-08-05T02:54:04.151Z,821.72
2022-08-05T02:55:01.822Z,821.75
2022-08-05T02:56:02.255Z,821.77
2022-08-05T02:57:01.471Z,821.76
2022-08-05T02:58:11.929Z,821.76
2022-08-05T02:59:01.508Z,821.75
2022-08-05T03:00:01.647Z,821.74
2022-08-05T03:01:01.942Z,821.72
2022-08-05T03:02:01.663Z,821.67
2022-08-05T03:03:01.581Z,821.71
2022-08-05T03:04:02.568Z,821.66
2022-08-05T03:05:01.620Z,821.63
2022-08-05T03:06:56.393Z,821.63
2022-08-05T03:07:01.655Z,821.64
2022-08-05T03:08:08.545Z,821.60
2022-08-05T03:09:01.700Z,821.60
2022-08-05T03:10:02.168Z,821.62
2022-08-05T03:11:54.443Z,821.62
2022-08-05T03:12:01.833Z,821.62
2022-08-05T03:14:04.088Z,821.64
2022-08-05T03:15:01.805Z,821.63
2022-08-05T03:16:01.828Z,821.71
2022-08-05T03:17:05.042Z,821.63
2022-08-05T03:18:01.861Z,821.65
2022-08-05T03:19:03.457Z,821.65
2022-08-05T03:20:01.897Z,821.64
2022-08-05T03:21:01.922Z,821.66
2022-08-05T03:22:01.934Z,821.63
2022-08-05T03:23:01.961Z,821.65
2022-08-05T03:24:02.434Z,821.64
2022-08-05T03:25:02.227Z,821.65
2022-08-05T03:26:04.896Z,821.65
2022-08-05T03:27:02.037Z,821.68
2022-08-05T03:28:02.052Z,821.67
2022-08-05T03:29:02.066Z,821.66
2022-08-05T03:30:08.555Z,821.67
2022-08-05T03:31:02.105Z,821.64
2022-08-05T03:32:02.124Z,821.63
2022-08-05T03:33:02.241Z,821.64
2022-08-05T03:34:02.161Z,821.63
2022-08-05T03:35:02.179Z,821.62
2022-08-05T03:36:02.205Z,821.58
2022-08-05T03:37:02.225Z,821.58
2022-08-05T03:38:02.230Z,821.54
2022-08-05T03:39:02.324Z,821.58
2022-08-05T03:40:03.940Z,821.57
2022-08-05T03:41:08.411Z,821.54
2022-08-05T03:42:02.313Z,821.56
2022-08-05T03:43:59.203Z,821.55
2022-08-05T03:44:11.664Z,821.57
2022-08-05T03:45:22.022Z,821.56
2022-08-05T03:46:02.384Z,821.57
2022-08-05T03:47:02.404Z,821.54
2022-08-05T03:48:02.423Z,821.54
2022-08-05T03:49:02.438Z,821.53
2022-08-05T03:50:02.458Z,821.57
2022-08-05T03:52:38.380Z,821.55
2022-08-05T03:52:48.707Z,821.55
2022-08-05T03:55:07.166Z,821.52
2022-08-05T03:55:50.114Z,821.54
2022-08-05T03:56:01.239Z,821.54
2022-08-05T03:56:10.542Z,821.53
2022-08-05T03:57:02.589Z,821.56
2022-08-05T03:58:02.609Z,821.54
2022-08-05T03:59:02.630Z,821.54
2022-08-05T04:00:02.647Z,821.54
2022-08-05T04:01:02.746Z,821.54
2022-08-05T04:02:02.727Z,821.55
2022-08-05T04:03:02.704Z,821.55
2022-08-05T04:04:10.176Z,821.53
2022-08-05T04:05:02.748Z,821.49
2022-08-05T04:06:02.757Z,821.49
2022-08-05T04:07:02.778Z,821.45
2022-08-05T04:08:02.793Z,821.49
2022-08-05T04:09:02.820Z,821.42
2022-08-05T04:10:02.872Z,821.45
2022-08-05T04:11:02.849Z,821.46
2022-08-05T04:12:02.968Z,821.49
2022-08-05T04:13:04.282Z,821.49
2022-08-05T04:14:02.904Z,821.49
2022-08-05T04:15:02.926Z,821.51
2022-08-05T04:16:04.693Z,821.53
2022-08-05T04:17:03.241Z,821.50
2022-08-05T04:18:02.989Z,821.49
2022-08-05T04:19:03.009Z,821.50
2022-08-05T04:20:03.018Z,821.48
2022-08-05T04:21:04.035Z,821.49
2022-08-05T04:22:09.302Z,821.45
2022-08-05T04:23:03.076Z,821.43
2022-08-05T04:24:06.423Z,821.45
2022-08-05T04:25:03.111Z,821.46
2022-08-05T04:26:03.140Z,821.46
2022-08-05T04:27:03.150Z,821.46
2022-08-05T04:28:05.903Z,821.46
2022-08-05T04:29:07.320Z,821.46
2022-08-05T04:30:03.708Z,821.45
2022-08-05T04:31:08.314Z,821.44
2022-08-05T04:32:03.249Z,821.46
2022-08-05T04:33:03.262Z,821.45
2022-08-05T04:34:31.382Z,821.48
2022-08-05T04:35:03.300Z,821.51
2022-08-05T04:36:16.417Z,821.50
2022-08-05T04:37:03.495Z,821.50
2022-08-05T04:38:06.561Z,821.51
2022-08-05T04:39:03.447Z,821.48
2022-08-05T04:40:03.392Z,821.52
2022-08-05T04:41:03.532Z,821.52
2022-08-05T04:42:03.788Z,821.49
2022-08-05T04:43:03.561Z,821.51
2022-08-05T04:44:09.541Z,821.54
2022-08-05T04:45:03.483Z,821.57
2022-08-05T04:46:03.506Z,821.58
2022-08-05T04:47:08.924Z,821.55
2022-08-05T04:48:03.593Z,821.56
2022-08-05T04:49:03.559Z,821.53
2022-08-05T04:50:11.569Z,821.55
2022-08-05T04:51:11.184Z,821.56
2022-08-05T04:52:03.622Z,821.54
2022-08-05T04:53:03.740Z,821.59
2022-08-05T04:54:03.659Z,821.57
2022-08-05T04:55:03.740Z,821.61
2022-08-05T04:56:33.408Z,821.63
2022-08-05T04:57:03.713Z,821.61
2022-08-05T04:58:03.731Z,821.64
2022-08-05T04:59:22.343Z,821.65
2022-08-05T05:00:03.770Z,821.63
2022-08-05T05:01:03.881Z,821.65
2022-08-05T05:02:06.955Z,821.63
2022-08-05T05:03:04.412Z,821.66
2022-08-05T05:04:03.844Z,821.68
2022-08-05T05:05:03.869Z,821.73
2022-08-05T05:06:40.752Z,821.65
2022-08-05T05:07:03.985Z,821.70
2022-08-05T05:08:03.938Z,821.72
2022-08-05T05:09:05.480Z,821.73
2022-08-05T05:10:04.061Z,821.70
2022-08-05T05:11:03.970Z,821.75
2022-08-05T05:12:03.994Z,821.72
2022-08-05T05:13:04.662Z,821.73
2022-08-05T05:14:04.042Z,821.76
2022-08-05T05:15:04.139Z,821.77
2022-08-05T05:16:06.969Z,821.75
2022-08-05T05:17:07.531Z,821.76
2022-08-05T05:18:04.125Z,821.78
2022-08-05T05:19:18.699Z,821.76
2022-08-05T05:20:04.141Z,821.78
2022-08-05T05:21:05.428Z,821.75
2022-08-05T05:22:24.647Z,821.76
2022-08-05T05:23:08.417Z,821.79
2022-08-05T05:24:09.082Z,821.76
2022-08-05T05:25:16.814Z,821.75
2022-08-05T05:26:04.257Z,821.76
2022-08-05T05:27:04.272Z,821.74
2022-08-05T05:28:04.311Z,821.78
2022-08-05T05:29:10.086Z,821.78
2022-08-05T05:30:05.270Z,821.77
2022-08-05T05:31:05.618Z,821.78
2022-08-05T05:32:04.364Z,821.80
2022-08-05T05:33:16.092Z,821.81
2022-08-05T05:34:04.406Z,821.81
2022-08-05T05:35:04.423Z,821.81
2022-08-05T05:36:04.444Z,821.82
2022-08-05T05:37:04.459Z,821.81
2022-08-05T05:38:05.639Z,821.78
2022-08-05T05:39:04.634Z,821.84
2022-08-05T05:40:04.517Z,821.80
2022-08-05T05:41:04.537Z,821.79
2022-08-05T05:42:04.585Z,821.88
2022-08-05T05:43:04.576Z,821.86
2022-08-05T05:44:04.595Z,821.89
2022-08-05T05:45:04.614Z,821.87
2022-08-05T05:46:05.203Z,821.88
2022-08-05T05:47:21.833Z,821.86
2022-08-05T05:48:07.088Z,821.84
2022-08-05T05:49:06.443Z,821.85
2022-08-05T05:50:04.708Z,821.85
2022-08-05T05:51:13.024Z,821.84
2022-08-05T05:52:05.716Z,821.83
2022-08-05T05:53:20.804Z,821.82
2022-08-05T05:54:04.785Z,821.81
2022-08-05T05:55:07.507Z,821.83
2022-08-05T05:56:04.843Z,821.78
2022-08-05T05:57:04.840Z,821.77
2022-08-05T05:58:04.862Z,821.77
2022-08-05T05:59:05.901Z,821.76
2022-08-05T06:00:04.899Z,821.76
2022-08-05T06:01:13.337Z,821.75
2022-08-05T06:02:05.041Z,821.73
2022-08-05T06:03:39.645Z,821.77
2022-08-05T06:04:05.061Z,821.76
2022-08-05T06:05:15.718Z,821.80
2022-08-05T06:06:05.037Z,821.78
2022-08-05T06:07:05.034Z,821.78
2022-08-05T06:08:05.052Z,821.79
2022-08-05T06:09:05.079Z,821.75
2022-08-05T06:10:10.008Z,821.79
2022-08-05T06:11:05.211Z,821.78
2022-08-05T06:12:05.129Z,821.77
2022-08-05T06:13:05.149Z,821.76
2022-08-05T06:14:05.166Z,821.78
2022-08-05T06:15:05.186Z,821.78
2022-08-05T06:16:29.541Z,821.79
2022-08-05T06:17:24.264Z,821.77
2022-08-05T06:18:05.242Z,821.76
2022-08-05T06:19:05.761Z,821.77
2022-08-05T06:20:05.282Z,821.78
2022-08-05T06:21:05.304Z,821.79
2022-08-05T06:22:06.305Z,821.83
2022-08-05T06:23:05.340Z,821.78
2022-08-05T06:24:05.894Z,821.81
2022-08-05T06:25:59.449Z,821.82
2022-08-05T06:26:13.803Z,821.83
2022-08-05T06:27:05.421Z,821.80
2022-08-05T06:28:11.032Z,821.79
2022-08-05T06:29:06.983Z,821.81
2022-08-05T06:30:17.809Z,821.79
2022-08-05T06:31:11.165Z,821.78
2022-08-05T06:32:05.515Z,821.79
2022-08-05T06:33:05.533Z,821.76
2022-08-05T06:34:07.651Z,821.78
2022-08-05T06:35:06.073Z,821.75
2022-08-05T06:36:09.706Z,821.80
2022-08-05T06:37:05.611Z,821.78
2022-08-05T06:38:05.765Z,821.77
2022-08-05T06:39:05.676Z,821.75
2022-08-05T06:40:05.669Z,821.78
2022-08-05T06:41:07.954Z,821.80
2022-08-05T06:42:05.705Z,821.80
2022-08-05T06:43:05.727Z,821.81
2022-08-05T06:44:05.745Z,821.80
2022-08-05T06:45:08.333Z,821.84
2022-08-05T06:46:07.439Z,821.81
2022-08-05T06:47:05.811Z,821.83
2022-08-05T06:48:44.119Z,821.84
2022-08-05T06:49:08.296Z,821.85
2022-08-05T06:50:05.868Z,821.85
2022-08-05T06:51:09.291Z,821.86
2022-08-05T06:52:05.896Z,821.89
2022-08-05T06:53:19.502Z,821.87
2022-08-05T06:54:05.937Z,821.90
2022-08-05T06:55:05.955Z,821.92
2022-08-05T06:56:05.980Z,821.93
2022-08-05T06:57:47.201Z,821.91
2022-08-05T06:58:29.766Z,821.93
2022-08-05T06:59:09.346Z,821.94
2022-08-05T07:00:06.063Z,821.95
2022-08-05T07:01:06.473Z,821.96
2022-08-05T07:02:06.102Z,821.96
2022-08-05T07:03:09.644Z,821.94
2022-08-05T07:04:06.134Z,821.94
2022-08-05T07:05:14.327Z,821.94
2022-08-05T07:06:14.164Z,821.92
2022-08-05T07:07:07.938Z,821.94
2022-08-05T07:08:06.206Z,821.94
2022-08-05T07:09:06.423Z,821.93
2022-08-05T07:10:06.258Z,821.93
2022-08-05T07:11:06.371Z,821.93
2022-08-05T07:12:06.290Z,821.88
2022-08-05T07:13:06.315Z,821.92
2022-08-05T07:14:06.329Z,821.91
2022-08-05T07:15:06.354Z,821.91
2022-08-05T07:16:06.370Z,821.88
2022-08-05T07:18:00.541Z,821.93
2022-08-05T07:18:09.194Z,821.91
2022-08-05T07:19:06.422Z,821.94
2022-08-05T07:21:06.464Z,821.92
2022-08-05T07:22:06.537Z,821.97
2022-08-05T07:23:06.624Z,821.99
2022-08-05T07:24:11.145Z,821.99
2022-08-05T07:25:23.776Z,821.98
2022-08-05T07:26:06.582Z,821.99
2022-08-05T07:27:08.914Z,822.04
2022-08-05T07:28:11.426Z,822.00
2022-08-05T07:29:06.629Z,822.02
2022-08-05T07:30:27.478Z,822.00
2022-08-05T07:31:06.666Z,822.02
2022-08-05T07:32:06.679Z,822.06
2022-08-05T07:33:09.506Z,822.03
2022-08-05T07:34:06.716Z,822.03
2022-08-05T07:36:04.335Z,822.04
2022-08-05T07:36:20.878Z,822.01
2022-08-05T07:37:06.769Z,822.03
2022-08-05T07:38:06.793Z,822.05
2022-08-05T07:39:06.858Z,822.03
2022-08-05T07:40:31.588Z,822.03
2022-08-05T07:42:09.176Z,822.05
2022-08-05T07:42:15.289Z,822.03
2022-08-05T07:43:14.467Z,822.05
2022-08-05T07:44:14.042Z,822.05
2022-08-05T07:45:09.249Z,822.03
2022-08-05T07:46:06.957Z,822.02
2022-08-05T07:47:07.925Z,822.00
2022-08-05T07:48:06.999Z,822.00
2022-08-05T07:49:07.885Z,822.01
2022-08-05T07:50:07.034Z,822.06
2022-08-05T07:51:23.113Z,822.01
2022-08-05T07:52:07.068Z,821.98
2022-08-05T07:53:07.092Z,822.03
2022-08-05T07:54:08.328Z,821.98
2022-08-05T07:55:44.510Z,822.02
2022-08-05T07:57:02.421Z,822.03
2022-08-05T07:57:22.580Z,821.98
2022-08-05T07:58:07.432Z,822.02
2022-08-05T07:59:08.555Z,821.96
2022-08-05T08:00:11.396Z,821.99
2022-08-05T08:01:12.209Z,822.00
2022-08-05T08:02:07.271Z,821.96
2022-08-05T08:03:14.141Z,821.92
2022-08-05T08:04:07.308Z,821.95
2022-08-05T08:05:07.319Z,821.96
2022-08-05T08:06:07.337Z,821.95
2022-08-05T08:07:07.632Z,821.91
2022-08-05T08:08:07.487Z,821.95
2022-08-05T08:09:07.404Z,821.95
2022-08-05T08:10:07.429Z,821.92
2022-08-05T08:11:08.845Z,821.95
2022-08-05T08:12:27.564Z,821.94
2022-08-05T08:13:07.488Z,821.91
2022-08-05T08:14:07.503Z,821.96
2022-08-05T08:15:14.069Z,821.94
2022-08-05T08:16:49.819Z,821.93
2022-08-05T08:17:07.562Z,821.94
2022-08-05T08:18:13.959Z,821.99
2022-08-05T08:19:07.600Z,821.96
2022-08-05T08:20:42.769Z,821.98
2022-08-05T08:21:09.453Z,821.95
2022-08-05T08:22:07.654Z,821.97
2022-08-05T08:24:00.011Z,821.97
2022-08-05T08:24:13.781Z,821.95
2022-08-05T08:25:15.727Z,821.96
2022-08-05T08:26:07.744Z,821.96
2022-08-05T08:27:07.757Z,821.95
2022-08-05T08:28:17.966Z,821.97
2022-08-05T08:30:03.044Z,821.96
2022-08-05T08:30:18.977Z,821.98
2022-08-05T08:31:07.905Z,821.98
2022-08-05T08:32:07.861Z,822.01
2022-08-05T08:33:08.211Z,821.97
2022-08-05T08:34:07.903Z,822.02
2022-08-05T08:35:13.744Z,822.00
2022-08-05T08:37:07.959Z,821.98
2022-08-05T08:38:07.978Z,821.95
2022-08-05T08:39:15.344Z,821.96
2022-08-05T08:40:08.029Z,821.97
2022-08-05T08:41:08.046Z,822.02
2022-08-05T08:42:34.513Z,822.00
2022-08-05T08:45:17.065Z,822.01
2022-08-05T08:45:22.800Z,821.98
2022-08-05T08:45:23.840Z,822.02
2022-08-05T08:46:10.065Z,822.04
2022-08-05T08:47:21.623Z,822.04
2022-08-05T08:48:22.347Z,822.01
2022-08-05T08:50:05.875Z,822.02
2022-08-05T08:50:08.395Z,822.05
2022-08-05T08:51:30.630Z,822.02
2022-08-05T08:52:13.468Z,822.02
2022-08-05T08:53:12.202Z,822.06
2022-08-05T08:54:08.300Z,822.09
2022-08-05T08:55:13.304Z,822.09
2022-08-05T08:56:08.342Z,822.06
2022-08-05T08:57:11.337Z,822.06
2022-08-05T08:58:08.584Z,822.10
2022-08-05T08:59:14.642Z,822.12
2022-08-05T09:00:08.439Z,822.13
2022-08-05T09:01:10.906Z,822.11
2022-08-05T09:02:08.831Z,822.14
2022-08-05T09:03:08.488Z,822.08
2022-08-05T09:04:10.671Z,822.11
2022-08-05T09:05:17.755Z,822.12
2022-08-05T09:06:12.130Z,822.15
2022-08-05T09:07:10.689Z,822.12
2022-08-05T09:08:09.797Z,822.13
2022-08-05T09:09:08.618Z,822.13
2022-08-05T09:10:08.647Z,822.11
2022-08-05T09:11:08.656Z,822.13
2022-08-05T09:12:20.652Z,822.13
2022-08-05T09:13:08.731Z,822.11
2022-08-05T09:14:54.050Z,822.14
2022-08-05T09:15:08.745Z,822.10
2022-08-05T09:16:14.521Z,822.09
2022-08-05T09:17:09.822Z,822.13
2022-08-05T09:18:09.044Z,822.13
2022-08-05T09:19:08.825Z,822.17
2022-08-05T09:20:08.840Z,822.15
2022-08-05T09:21:11.791Z,822.14
2022-08-05T09:22:23.299Z,822.17
2022-08-05T09:23:09.287Z,822.16
2022-08-05T09:24:10.176Z,822.13
2022-08-05T09:25:13.775Z,822.17
2022-08-05T09:26:09.340Z,822.15
2022-08-05T09:27:09.403Z,822.17
2022-08-05T09:28:09.014Z,822.16
2022-08-05T09:29:09.139Z,822.12
2022-08-05T09:30:09.057Z,822.13
2022-08-05T09:31:43.490Z,822.17
2022-08-05T09:32:42.950Z,822.25
2022-08-05T09:33:09.122Z,822.19
2022-08-05T09:34:09.858Z,822.16
2022-08-05T09:35:09.178Z,822.17
2022-08-05T09:36:11.731Z,822.18
2022-08-05T09:37:15.215Z,822.19
2022-08-05T09:38:16.694Z,822.23
2022-08-05T09:39:18.117Z,822.18
2022-08-05T09:40:09.336Z,822.20
2022-08-05T09:41:09.306Z,822.19
2022-08-05T09:42:11.400Z,822.18
2022-08-05T09:43:09.332Z,822.20
2022-08-05T09:44:09.364Z,822.15
2022-08-05T09:46:04.538Z,822.15
2022-08-05T09:46:09.401Z,822.14
2022-08-05T09:47:12.519Z,822.18
2022-08-05T09:48:09.442Z,822.14
2022-08-05T09:49:18.724Z,822.13
2022-08-05T09:50:09.498Z,822.14
2022-08-05T09:51:14.877Z,822.12
2022-08-05T09:52:09.539Z,822.12
2022-08-05T09:53:12.076Z,822.12
2022-08-05T09:54:09.993Z,822.09
2022-08-05T09:55:57.088Z,822.16
2022-08-05T09:56:12.843Z,822.21
2022-08-05T09:57:23.443Z,822.16
2022-08-05T09:58:09.668Z,822.15
2022-08-05T09:59:09.691Z,822.14
2022-08-05T10:00:09.718Z,822.12
2022-08-05T10:01:15.240Z,822.14
2022-08-05T10:02:09.822Z,822.10
2022-08-05T10:03:09.884Z,822.06
2022-08-05T10:04:10.527Z,822.06
2022-08-05T10:05:09.826Z,822.12
2022-08-05T10:06:15.663Z,822.13
2022-08-05T10:07:25.043Z,822.12
2022-08-05T10:08:34.918Z,822.09
2022-08-05T10:09:09.919Z,822.09
2022-08-05T10:10:15.222Z,822.12
2022-08-05T10:11:09.965Z,822.11
2022-08-05T10:12:18.654Z,822.06
2022-08-05T10:13:10.086Z,822.11
2022-08-05T10:14:10.107Z,822.09
2022-08-05T10:15:10.055Z,822.05
2022-08-05T10:16:10.079Z,822.07
2022-08-05T10:17:10.102Z,822.10
2022-08-05T10:18:10.138Z,822.06
2022-08-05T10:19:11.689Z,822.03
2022-08-05T10:20:11.073Z,822.04
2022-08-05T10:21:15.528Z,822.07
2022-08-05T10:22:15.613Z,822.06
2022-08-05T10:23:34.141Z,822.07
2022-08-05T10:24:10.673Z,822.03
2022-08-05T10:25:10.286Z,822.04
2022-08-05T10:26:14.360Z,822.06
2022-08-05T10:27:10.379Z,822.06
2022-08-05T10:28:16.891Z,822.06
2022-08-05T10:29:10.377Z,822.04
2022-08-05T10:31:21.013Z,822.02
2022-08-05T10:32:48.988Z,822.03
2022-08-05T10:32:52.275Z,821.99
2022-08-05T10:33:15.014Z,822.02
2022-08-05T10:34:10.601Z,822.03
2022-08-05T10:35:10.519Z,822.00
2022-08-05T10:36:10.541Z,822.00
2022-08-05T10:37:10.563Z,822.00
2022-08-05T10:38:11.740Z,822.01
2022-08-05T10:39:15.034Z,821.99
2022-08-05T10:40:17.690Z,822.00
2022-08-05T10:41:12.383Z,822.01
2022-08-05T10:42:11.320Z,821.96
2022-08-05T10:43:12.399Z,821.99
2022-08-05T10:44:10.726Z,821.99
2022-08-05T10:45:23.848Z,821.99
2022-08-05T10:46:10.778Z,822.00
2022-08-05T10:47:25.993Z,822.01
2022-08-05T10:48:31.532Z,822.00
2022-08-05T10:49:16.910Z,822.00
2022-08-05T10:50:32.695Z,821.97
2022-08-05T10:51:22.327Z,821.98
2022-08-05T10:52:10.910Z,821.95
2022-08-05T10:53:10.932Z,821.94
2022-08-05T10:54:28.494Z,821.97
2022-08-05T10:55:10.975Z,821.93
2022-08-05T10:56:21.575Z,821.91
2022-08-05T10:57:11.021Z,821.92
2022-08-05T10:58:11.438Z,821.90
2022-08-05T10:59:12.586Z,821.89
2022-08-05T11:00:13.338Z,821.90
2022-08-05T11:01:11.412Z,821.92
2022-08-05T11:02:14.510Z,821.91
2022-08-05T11:03:23.857Z,821.97
2022-08-05T11:04:11.186Z,821.96
2022-08-05T11:05:11.210Z,821.92
2022-08-05T11:06:15.326Z,821.91
2022-08-05T11:07:11.264Z,822.00
2022-08-05T11:08:33.760Z,821.98
2022-08-05T11:09:16.342Z,821.93
2022-08-05T11:10:11.330Z,821.92
2022-08-05T11:11:16.505Z,821.86
2022-08-05T11:12:11.474Z,821.83
2022-08-05T11:13:11.397Z,821.82
2022-08-05T11:14:11.575Z,821.80
2022-08-05T11:15:20.240Z,821.77
2022-08-05T11:16:11.470Z,821.77
2022-08-05T11:17:58.066Z,821.75
2022-08-05T11:18:11.783Z,821.76
2022-08-05T11:20:17.325Z,821.82
2022-08-05T11:20:18.294Z,821.83
2022-08-05T11:21:12.130Z,821.88
2022-08-05T11:22:11.606Z,821.88
2022-08-05T11:23:11.631Z,821.92
2022-08-05T11:24:14.823Z,821.95
2022-08-05T11:25:16.800Z,821.97
2022-08-05T11:26:11.707Z,821.97
2022-08-05T11:27:11.727Z,821.98
2022-08-05T11:28:11.753Z,821.97
2022-08-05T11:29:14.337Z,822.00
2022-08-05T11:30:11.802Z,822.00
2022-08-05T11:31:11.823Z,821.96
2022-08-05T11:32:11.847Z,821.99
2022-08-05T11:33:13.857Z,822.01
2022-08-05T11:34:14.724Z,821.95
2022-08-05T11:35:11.915Z,821.94
2022-08-05T11:36:11.935Z,821.97
2022-08-05T11:38:28.838Z,821.94
2022-08-05T11:38:30.747Z,821.97
2022-08-05T11:39:12.113Z,821.91
2022-08-05T11:40:12.026Z,821.91
2022-08-05T11:41:34.612Z,821.92
2022-08-05T11:42:12.070Z,821.94
2022-08-05T11:43:12.097Z,821.93
2022-08-05T11:44:12.118Z,821.92
2022-08-05T11:45:23.083Z,821.93
2022-08-05T11:46:15.045Z,821.96
2022-08-05T11:47:15.081Z,821.94
2022-08-05T11:48:12.207Z,821.95
2022-08-05T11:49:12.236Z,821.93
2022-08-05T11:50:14.439Z,821.95
2022-08-05T11:51:12.281Z,821.92
2022-08-05T11:52:12.304Z,821.97
2022-08-05T11:53:12.322Z,821.95
2022-08-05T11:54:12.341Z,821.95
2022-08-05T11:55:12.527Z,821.93
2022-08-05T11:56:12.386Z,821.98
2022-08-05T11:57:25.931Z,821.98
2022-08-05T11:58:12.700Z,821.94
2022-08-05T11:59:13.765Z,821.94
2022-08-05T12:00:12.484Z,821.94
2022-08-05T12:01:12.503Z,821.91
2022-08-05T12:02:24.027Z,821.89
2022-08-05T12:03:12.634Z,821.91
2022-08-05T12:04:12.569Z,821.88
2022-08-05T12:05:17.870Z,821.89
2022-08-05T12:06:12.614Z,821.91
2022-08-05T12:07:12.639Z,821.91
2022-08-05T12:08:18.233Z,821.97
2022-08-05T12:09:19.995Z,821.94
2022-08-05T12:10:12.793Z,821.93
2022-08-05T12:11:20.274Z,821.95
2022-08-05T12:12:12.743Z,821.95
2022-08-05T12:13:15.544Z,821.94
2022-08-05T12:14:12.793Z,821.92
2022-08-05T12:15:16.487Z,821.86
2022-08-05T12:16:14.813Z,821.93
2022-08-05T12:18:02.948Z,821.89
2022-08-05T12:18:13.244Z,821.92
2022-08-05T12:20:17.670Z,821.88
2022-08-05T12:20:26.248Z,821.87
2022-08-05T12:21:12.944Z,821.88
2022-08-05T12:22:13.076Z,821.88
2022-08-05T12:23:12.993Z,821.83
2022-08-05T12:24:13.015Z,821.87
2022-08-05T12:25:14.197Z,821.88
2022-08-05T12:26:13.057Z,821.92
2022-08-05T12:27:21.612Z,821.87
2022-08-05T12:28:15.040Z,821.86
2022-08-05T12:29:16.194Z,821.88
2022-08-05T12:30:15.545Z,821.86
2022-08-05T12:31:23.115Z,821.86
2022-08-05T12:32:13.191Z,821.87